Huvudsida
METAR-TAF:

METAR-TAF

Flygplatser :

Trevico, Italien

latitud: 41-03N, longitud: 015-14E, höjd: 1085 m

Aktuellt väderrapport

Denna rapport gjordes för 39 minuter sedan, klockan 07:55 UTC
Vind 12 kt från nord
Temperatur 2°C
Fuktighet 60%
Tryck 1028 hPa
Sikt 10 km eller mer
Få moln på en höjd av 1800 ft

METAR: LIRT 220755Z 01012KT 9999 FEW018 02/M05 Q1028 RMK SCT MON LIB VAL NIL VIS MIN 9999

Tid: 09:34 (08:34 UTC)


TAF: saknas

Aktuella väderrapporter och prognoser från 4000 flygplatser (METAR- och TAF-rapporter).

De tillgängliga stationerna syns som gula och röda prickar på kartan.

För musen över prickarna för att se namnen på stationerna.

Klicka sedan för att få väderrapporter och prognoser.

För att ändra kartan: Klicka på de gröna knapparna med ett svart kors på för att zooma in; den gröna knappen med ett streck på för att zooma ut; eller på de gröna pilarna för angränsande kartor.


METAR-TAF: